Time;durP1;ratioP1;P1;durP2;ratioP2;P2;SDS_P1;SDS_P2;PMS_P1;PMS_P2;Temp;Humidity;BMP_temperature;BMP_pressure;BME280_temperature;BME280_humidity;BME280_pressure;Samples;Min_cycle;Max_cycle;Signal;HPM_P1;HPM_P2
2021/06/20 00:00:07;;;;;;;;;;;25.00;99.90;;;;;;5083685;28;19938;-85
2021/06/20 00:02:34;;;;;;;;;;;25.00;99.90;;;;;;5083973;28;19978;-86
2021/06/20 00:05:00;;;;;;;;;;;25.10;99.90;;;;;;5083636;28;19961;-86
2021/06/20 00:07:27;;;;;;;;;;;25.00;99.90;;;;;;5083744;28;19939;-86
2021/06/20 00:09:53;;;;;;;;;;;25.10;99.90;;;;;;5083438;28;19941;-86
2021/06/20 00:12:20;;;;;;;;;;;25.00;99.90;;;;;;5083126;28;20027;-86
2021/06/20 00:14:48;;;;;;;;;;;25.00;99.90;;;;;;5082365;28;19966;-86
2021/06/20 00:17:14;;;;;;;;;;;24.80;99.90;;;;;;5087059;28;19941;-86
2021/06/20 00:19:40;;;;;;;;;;;24.70;99.90;;;;;;5088329;28;19984;-86
2021/06/20 00:22:07;;;;;;;;;;;24.70;99.90;;;;;;5088992;28;19954;-86
2021/06/20 00:24:33;;;;;;;;;;;24.80;99.90;;;;;;5084283;28;19953;-86
2021/06/20 00:27:02;;;;;;;;;;;24.80;99.90;;;;;;5085879;28;19938;-85
2021/06/20 00:29:29;;;;;;;;;;;24.70;99.90;;;;;;5092932;28;20012;-86
2021/06/20 00:31:57;;;;;;;;;;;24.70;99.90;;;;;;5091827;28;19967;-86
2021/06/20 00:34:24;;;;;;;;;;;24.70;99.90;;;;;;5093228;28;19986;-85
2021/06/20 00:36:51;;;;;;;;;;;24.70;99.90;;;;;;5092679;28;19948;-85
2021/06/20 00:39:17;;;;;;;;;;;24.60;99.90;;;;;;5091986;28;19939;-85
2021/06/20 00:41:43;;;;;;;;;;;24.40;99.90;;;;;;5094366;28;19960;-85
2021/06/20 00:44:10;;;;;;;;;;;24.40;99.90;;;;;;5093379;28;19944;-86
2021/06/20 00:46:37;;;;;;;;;;;24.50;99.90;;;;;;5093038;28;19994;-85
2021/06/20 00:49:04;;;;;;;;;;;24.50;99.90;;;;;;5092695;28;20381;-86
2021/06/20 00:51:31;;;;;;;;;;;24.50;99.90;;;;;;5092098;28;19957;-85
2021/06/20 00:53:58;;;;;;;;;;;24.50;99.90;;;;;;5092099;28;19953;-85
2021/06/20 00:56:24;;;;;;;;;;;24.50;99.90;;;;;;5091965;28;19966;-85
2021/06/20 00:59:01;;;;;;;;;;;24.50;99.90;;;;;;5093465;28;19942;-85
2021/06/20 01:01:28;;;;;;;;;;;24.50;99.90;;;;;;5093866;28;19972;-85
2021/06/20 01:03:54;;;;;;;;;;;24.50;99.90;;;;;;5093550;28;19941;-86
2021/06/20 01:06:22;;;;;;;;;;;24.50;99.90;;;;;;5093088;28;19941;-86
2021/06/20 01:08:48;;;;;;;;;;;24.30;99.90;;;;;;5094110;28;19942;-86
2021/06/20 01:11:15;;;;;;;;;;;24.20;99.90;;;;;;5093925;28;19960;-86
2021/06/20 01:13:43;;;;;;;;;;;24.10;99.90;;;;;;5096517;28;19946;-85
2021/06/20 01:16:09;;;;;;;;;;;24.00;99.90;;;;;;5094320;28;19944;-85
2021/06/20 01:18:36;;;;;;;;;;;23.90;99.90;;;;;;5092108;28;19967;-85
2021/06/20 01:21:03;;;;;;;;;;;23.90;99.90;;;;;;5093149;28;20428;-87
2021/06/20 01:23:30;;;;;;;;;;;23.90;99.90;;;;;;5092955;28;19965;-84
2021/06/20 01:25:57;;;;;;;;;;;23.80;99.90;;;;;;5093296;28;19928;-85
2021/06/20 01:28:26;;;;;;;;;;;23.80;99.90;;;;;;5092247;28;19944;-86
2021/06/20 01:30:57;;;;;;;;;;;23.70;99.90;;;;;;5092237;28;19949;-86
2021/06/20 01:33:24;;;;;;;;;;;23.80;99.90;;;;;;5093513;28;19936;-86
2021/06/20 01:35:50;;;;;;;;;;;23.70;99.90;;;;;;5092182;28;20351;-87
2021/06/20 01:38:17;;;;;;;;;;;23.70;99.90;;;;;;5093181;28;19948;-86
2021/06/20 01:40:44;;;;;;;;;;;23.70;99.90;;;;;;5092896;28;19956;-85
2021/06/20 01:43:12;;;;;;;;;;;23.70;99.90;;;;;;5092213;28;19949;-87
2021/06/20 01:45:39;;;;;;;;;;;23.70;99.90;;;;;;5090596;28;19964;-85
2021/06/20 01:48:06;;;;;;;;;;;23.80;99.90;;;;;;5093756;28;19944;-86
2021/06/20 01:50:33;;;;;;;;;;;23.90;99.90;;;;;;5089808;28;19966;-86
2021/06/20 01:53:00;;;;;;;;;;;23.90;99.90;;;;;;5088849;28;19969;-86
2021/06/20 01:55:26;;;;;;;;;;;23.90;99.90;;;;;;5089255;28;19976;-84
2021/06/20 01:57:54;;;;;;;;;;;24.00;99.90;;;;;;5090551;28;19930;-87
2021/06/20 02:00:20;;;;;;;;;;;23.90;99.90;;;;;;5091449;28;19946;-85
2021/06/20 02:02:47;;;;;;;;;;;23.90;99.90;;;;;;5087346;28;20011;-86
2021/06/20 02:05:13;;;;;;;;;;;23.80;99.90;;;;;;5086945;28;19942;-85
2021/06/20 02:07:40;;;;;;;;;;;23.60;99.90;;;;;;5085822;28;20390;-85
2021/06/20 02:10:08;;;;;;;;;;;23.50;99.90;;;;;;5084791;28;19946;-86
2021/06/20 02:12:34;;;;;;;;;;;23.50;99.90;;;;;;5084596;28;19967;-86
2021/06/20 02:15:03;;;;;;;;;;;23.50;99.90;;;;;;5084862;28;20014;-84
2021/06/20 02:17:30;;;;;;;;;;;23.50;99.90;;;;;;5084565;28;19943;-85
2021/06/20 02:19:58;;;;;;;;;;;23.50;99.90;;;;;;5087016;28;19965;-85
2021/06/20 02:22:26;;;;;;;;;;;23.50;99.90;;;;;;5091164;28;19957;-86
2021/06/20 02:24:52;;;;;;;;;;;23.40;99.90;;;;;;5090526;28;19943;-86
2021/06/20 02:27:19;;;;;;;;;;;23.40;99.90;;;;;;5090585;28;19941;-85
2021/06/20 02:29:48;;;;;;;;;;;23.40;99.90;;;;;;5090465;28;19943;-85
2021/06/20 02:32:16;;;;;;;;;;;23.40;99.90;;;;;;5082774;28;19973;-86
2021/06/20 02:34:43;;;;;;;;;;;23.40;99.90;;;;;;5086390;28;19958;-86
2021/06/20 02:37:10;;;;;;;;;;;23.30;99.90;;;;;;5081082;28;19951;-86
2021/06/20 02:39:37;;;;;;;;;;;23.20;99.90;;;;;;5082711;28;19940;-86
2021/06/20 02:42:04;;;;;;;;;;;23.20;99.90;;;;;;5082342;28;19958;-86
2021/06/20 02:44:31;;;;;;;;;;;23.10;99.90;;;;;;5082350;28;19941;-86
2021/06/20 02:46:59;;;;;;;;;;;23.10;99.90;;;;;;5093203;28;19928;-86
2021/06/20 02:49:27;;;;;;;;;;;23.10;99.90;;;;;;5095622;28;19941;-87
2021/06/20 02:51:53;;;;;;;;;;;23.10;99.90;;;;;;5094122;28;19962;-86
2021/06/20 02:54:20;;;;;;;;;;;23.00;99.90;;;;;;5095087;28;20009;-85
2021/06/20 02:56:47;;;;;;;;;;;23.00;99.90;;;;;;5099631;28;19968;-85
2021/06/20 02:59:13;;;;;;;;;;;23.00;99.90;;;;;;5089372;28;19945;-86
2021/06/20 03:01:40;;;;;;;;;;;23.00;99.90;;;;;;5088859;28;19957;-86
2021/06/20 03:04:06;;;;;;;;;;;23.00;99.90;;;;;;5087592;28;19945;-85
2021/06/20 03:06:34;;;;;;;;;;;23.10;99.90;;;;;;5087700;28;19994;-86
2021/06/20 03:09:01;;;;;;;;;;;23.10;99.90;;;;;;5086116;28;19943;-86
2021/06/20 03:11:27;;;;;;;;;;;23.00;99.90;;;;;;5085000;28;19961;-86
2021/06/20 03:13:54;;;;;;;;;;;23.00;99.90;;;;;;5086449;28;19969;-86
2021/06/20 03:16:20;;;;;;;;;;;23.00;99.90;;;;;;5085426;28;19955;-85
2021/06/20 03:18:47;;;;;;;;;;;23.10;99.90;;;;;;5090173;28;20006;-85
2021/06/20 03:21:14;;;;;;;;;;;23.10;99.90;;;;;;5086175;28;20054;-87
2021/06/20 03:23:42;;;;;;;;;;;23.20;99.90;;;;;;5084819;28;19942;-85
2021/06/20 03:26:09;;;;;;;;;;;23.20;99.90;;;;;;5085750;28;19941;-85
2021/06/20 03:28:35;;;;;;;;;;;23.20;99.90;;;;;;5085202;28;19944;-86
2021/06/20 03:31:02;;;;;;;;;;;23.10;99.90;;;;;;5083869;28;19942;-86
2021/06/20 03:33:29;;;;;;;;;;;23.30;99.90;;;;;;5084809;28;19966;-85
2021/06/20 03:35:56;;;;;;;;;;;23.30;99.90;;;;;;5085292;28;19996;-86
2021/06/20 03:38:22;;;;;;;;;;;23.20;99.90;;;;;;5085736;28;19940;-85
2021/06/20 03:40:50;;;;;;;;;;;23.10;99.90;;;;;;5083695;28;19960;-86
2021/06/20 03:43:17;;;;;;;;;;;23.10;99.90;;;;;;5093761;28;19934;-86
2021/06/20 03:45:43;;;;;;;;;;;23.10;99.90;;;;;;5100602;28;19946;-86
2021/06/20 03:48:10;;;;;;;;;;;23.10;99.90;;;;;;5100516;28;19963;-85
2021/06/20 03:50:36;;;;;;;;;;;23.20;99.90;;;;;;5100523;28;19930;-85
2021/06/20 03:53:03;;;;;;;;;;;23.20;99.90;;;;;;5100049;28;19985;-86
2021/06/20 03:55:29;;;;;;;;;;;23.20;99.90;;;;;;5094750;28;19958;-86
2021/06/20 03:57:57;;;;;;;;;;;23.20;99.90;;;;;;5084092;28;19970;-86
2021/06/20 04:00:24;;;;;;;;;;;23.20;99.90;;;;;;5082476;28;19967;-85
2021/06/20 04:02:50;;;;;;;;;;;23.30;99.90;;;;;;5082149;28;19957;-86
2021/06/20 04:05:17;;;;;;;;;;;23.40;99.90;;;;;;5084362;28;19949;-86
2021/06/20 04:07:43;;;;;;;;;;;23.40;99.90;;;;;;5081315;28;19944;-86
2021/06/20 04:10:10;;;;;;;;;;;23.30;99.90;;;;;;5082171;28;20353;-86
2021/06/20 04:12:37;;;;;;;;;;;23.30;99.90;;;;;;5106885;22;19960;-84
2021/06/20 04:15:06;;;;;;;;;;;23.40;99.90;;;;;;5084166;28;20435;-84
2021/06/20 04:17:34;;;;;;;;;;;23.30;99.90;;;;;;5084691;28;19967;-84
2021/06/20 04:20:01;;;;;;;;;;;23.30;99.90;;;;;;5082267;28;19983;-85
2021/06/20 04:22:27;;;;;;;;;;;23.40;99.90;;;;;;5083525;28;19959;-85
2021/06/20 04:24:53;;;;;;;;;;;23.40;99.90;;;;;;5082306;28;20462;-84
2021/06/20 04:27:20;;;;;;;;;;;23.40;99.90;;;;;;5083148;28;20458;-84
2021/06/20 04:29:46;;;;;;;;;;;23.40;99.90;;;;;;5084029;28;19944;-84
2021/06/20 04:32:14;;;;;;;;;;;23.40;99.90;;;;;;5083252;28;20003;-85
2021/06/20 04:34:41;;;;;;;;;;;23.40;99.90;;;;;;5083744;28;19947;-85
2021/06/20 04:37:07;;;;;;;;;;;23.50;99.90;;;;;;5083843;28;19993;-84
2021/06/20 04:39:34;;;;;;;;;;;23.60;99.90;;;;;;5083875;28;19998;-84
2021/06/20 04:42:01;;;;;;;;;;;23.60;99.90;;;;;;5082899;28;19958;-84
2021/06/20 04:44:46;;;;;;;;;;;23.70;99.90;;;;;;5082321;28;19990;-84
2021/06/20 04:47:13;;;;;;;;;;;23.70;99.90;;;;;;5082133;28;20397;-84
2021/06/20 04:49:41;;;;;;;;;;;23.80;99.90;;;;;;5082097;28;19940;-84
2021/06/20 04:52:09;;;;;;;;;;;23.80;99.90;;;;;;5082756;28;19982;-84
2021/06/20 04:54:36;;;;;;;;;;;23.80;99.90;;;;;;5083763;28;20474;-84
2021/06/20 04:57:03;;;;;;;;;;;23.90;99.90;;;;;;5084771;28;19944;-84
2021/06/20 04:59:30;;;;;;;;;;;23.80;99.90;;;;;;5096634;28;19955;-84
2021/06/20 05:01:57;;;;;;;;;;;23.90;99.90;;;;;;5078505;28;19961;-83
2021/06/20 05:04:24;;;;;;;;;;;23.90;99.90;;;;;;5076387;28;19942;-83
2021/06/20 05:06:52;;;;;;;;;;;24.10;99.90;;;;;;5077523;28;20008;-83
2021/06/20 05:09:18;;;;;;;;;;;24.20;99.90;;;;;;5078148;28;19944;-83
2021/06/20 05:11:45;;;;;;;;;;;24.20;99.90;;;;;;5077046;28;19974;-84
2021/06/20 05:14:11;;;;;;;;;;;24.30;99.90;;;;;;5090506;28;19964;-83
2021/06/20 05:16:38;;;;;;;;;;;24.30;99.90;;;;;;5096924;28;20033;-83
2021/06/20 05:19:04;;;;;;;;;;;24.30;99.90;;;;;;5097304;28;19946;-83
2021/06/20 05:21:33;;;;;;;;;;;24.40;99.90;;;;;;5095874;28;19963;-85
2021/06/20 05:24:01;;;;;;;;;;;24.40;99.90;;;;;;5083062;28;19943;-84
2021/06/20 05:26:28;;;;;;;;;;;24.40;99.90;;;;;;5094060;28;19944;-83
2021/06/20 05:28:54;;;;;;;;;;;24.50;99.90;;;;;;5093491;28;20001;-84
2021/06/20 05:31:21;;;;;;;;;;;24.50;99.90;;;;;;5095192;28;19933;-84
2021/06/20 05:33:47;;;;;;;;;;;24.60;99.90;;;;;;5092291;28;19950;-84
2021/06/20 05:36:14;;;;;;;;;;;24.70;99.90;;;;;;5083040;28;20050;-85
2021/06/20 05:38:40;;;;;;;;;;;24.70;99.90;;;;;;5081545;28;19997;-85
2021/06/20 05:41:08;;;;;;;;;;;24.80;99.90;;;;;;5081856;28;19967;-85
2021/06/20 05:43:34;;;;;;;;;;;24.90;99.90;;;;;;5083244;28;19957;-85
2021/06/20 05:46:01;;;;;;;;;;;24.90;99.90;;;;;;5098416;28;19950;-84
2021/06/20 05:48:27;;;;;;;;;;;24.90;99.90;;;;;;5098798;28;19933;-84
2021/06/20 05:50:54;;;;;;;;;;;25.00;99.90;;;;;;5097388;28;19928;-83
2021/06/20 05:53:20;;;;;;;;;;;25.00;99.90;;;;;;5096008;28;19964;-84
2021/06/20 05:55:47;;;;;;;;;;;25.20;99.90;;;;;;5096580;28;19944;-84
2021/06/20 05:58:14;;;;;;;;;;;25.20;99.90;;;;;;5096673;28;19975;-83
2021/06/20 06:00:41;;;;;;;;;;;25.20;99.90;;;;;;5089661;28;20392;-85
2021/06/20 06:03:07;;;;;;;;;;;25.30;99.90;;;;;;5082857;28;19966;-85
2021/06/20 06:05:34;;;;;;;;;;;25.30;99.90;;;;;;5083564;28;20309;-85
2021/06/20 06:08:01;;;;;;;;;;;25.30;99.90;;;;;;5081956;28;19946;-85
2021/06/20 06:10:28;;;;;;;;;;;25.40;99.90;;;;;;5081821;28;20480;-85
2021/06/20 06:12:55;;;;;;;;;;;25.50;99.90;;;;;;5085156;28;19992;-84
2021/06/20 06:15:23;;;;;;;;;;;25.50;99.90;;;;;;5096108;28;19966;-85
2021/06/20 06:17:50;;;;;;;;;;;25.60;99.90;;;;;;5096639;28;19985;-84
2021/06/20 06:20:17;;;;;;;;;;;25.60;99.90;;;;;;5096575;28;19954;-85
2021/06/20 06:22:44;;;;;;;;;;;25.70;99.90;;;;;;5092002;28;20010;-85
2021/06/20 06:25:11;;;;;;;;;;;25.80;99.90;;;;;;5092982;28;19947;-85
2021/06/20 06:27:38;;;;;;;;;;;25.90;99.90;;;;;;5092136;28;19939;-85
2021/06/20 06:30:05;;;;;;;;;;;26.00;99.90;;;;;;5097488;28;19957;-85
2021/06/20 06:32:32;;;;;;;;;;;26.10;99.90;;;;;;5095800;28;19976;-85
2021/06/20 06:34:59;;;;;;;;;;;26.20;99.90;;;;;;5098403;28;19950;-84
2021/06/20 06:37:25;;;;;;;;;;;26.30;99.90;;;;;;5101406;28;19938;-85
2021/06/20 06:39:52;;;;;;;;;;;26.40;99.90;;;;;;5093704;28;20398;-85
2021/06/20 06:42:18;;;;;;;;;;;26.40;99.90;;;;;;5086369;28;19982;-85
2021/06/20 06:44:45;;;;;;;;;;;26.50;99.90;;;;;;5089497;28;19930;-85
2021/06/20 06:47:11;;;;;;;;;;;26.60;99.90;;;;;;5084968;28;19945;-85
2021/06/20 06:49:39;;;;;;;;;;;26.60;99.90;;;;;;5081956;28;19944;-85
2021/06/20 06:52:06;;;;;;;;;;;26.60;99.90;;;;;;5084030;28;20002;-85
2021/06/20 06:54:32;;;;;;;;;;;26.70;99.90;;;;;;5085979;28;20350;-85
2021/06/20 06:56:58;;;;;;;;;;;26.70;99.90;;;;;;5085920;28;20495;-85
2021/06/20 06:59:25;;;;;;;;;;;26.80;99.90;;;;;;5084455;28;19950;-85
2021/06/20 07:01:51;;;;;;;;;;;26.90;99.90;;;;;;5081636;28;20334;-85
2021/06/20 07:04:18;;;;;;;;;;;27.00;99.90;;;;;;5084037;28;20314;-85
2021/06/20 07:06:45;;;;;;;;;;;27.00;99.90;;;;;;5082582;28;20009;-85
2021/06/20 07:09:12;;;;;;;;;;;27.00;99.90;;;;;;5083312;28;20009;-85
2021/06/20 07:11:38;;;;;;;;;;;27.10;99.90;;;;;;5082166;28;19998;-85
2021/06/20 07:14:05;;;;;;;;;;;27.10;99.90;;;;;;5083067;28;19938;-85
2021/06/20 07:16:31;;;;;;;;;;;27.10;99.90;;;;;;5083888;28;19960;-85
2021/06/20 07:18:58;;;;;;;;;;;27.20;99.90;;;;;;5083900;28;19945;-85
2021/06/20 07:21:24;;;;;;;;;;;27.30;99.90;;;;;;5083663;28;19990;-85
2021/06/20 07:23:52;;;;;;;;;;;27.40;99.90;;;;;;5084311;28;19947;-85
2021/06/20 07:26:18;;;;;;;;;;;27.40;99.90;;;;;;5085112;28;20402;-84
2021/06/20 07:28:46;;;;;;;;;;;27.40;99.90;;;;;;5083719;28;19935;-85
2021/06/20 07:31:12;;;;;;;;;;;27.50;99.90;;;;;;5083137;28;19941;-85
2021/06/20 07:33:38;;;;;;;;;;;27.60;99.90;;;;;;5083935;28;19962;-85
2021/06/20 07:36:09;;;;;;;;;;;27.60;99.90;;;;;;5083052;28;19955;-85
2021/06/20 07:38:35;;;;;;;;;;;27.70;99.90;;;;;;5084600;28;19942;-85
2021/06/20 07:41:03;;;;;;;;;;;27.70;99.90;;;;;;5083768;28;20466;-85
2021/06/20 07:43:30;;;;;;;;;;;27.90;99.90;;;;;;5082113;28;19993;-85
2021/06/20 07:45:56;;;;;;;;;;;28.00;99.90;;;;;;5083037;28;19968;-85
2021/06/20 07:48:23;;;;;;;;;;;28.00;99.90;;;;;;5082683;28;19946;-85
2021/06/20 07:50:49;;;;;;;;;;;28.10;99.90;;;;;;5082841;28;19946;-85
2021/06/20 07:53:16;;;;;;;;;;;28.10;99.90;;;;;;5082760;28;19959;-85
2021/06/20 07:55:42;;;;;;;;;;;28.10;99.90;;;;;;5083947;28;19947;-85
2021/06/20 07:58:10;;;;;;;;;;;28.20;99.90;;;;;;5082932;28;19995;-85
2021/06/20 08:00:37;;;;;;;;;;;28.20;99.90;;;;;;5082601;28;20406;-85
2021/06/20 08:03:03;;;;;;;;;;;28.20;99.90;;;;;;5081924;28;20082;-85
2021/06/20 08:05:30;;;;;;;;;;;28.20;99.90;;;;;;5082076;28;20027;-85
2021/06/20 08:07:56;;;;;;;;;;;28.20;99.90;;;;;;5082486;28;19939;-85
2021/06/20 08:10:23;;;;;;;;;;;28.30;99.90;;;;;;5082817;28;19942;-85
2021/06/20 08:12:49;;;;;;;;;;;28.30;99.90;;;;;;5083308;28;19966;-85
2021/06/20 08:15:17;;;;;;;;;;;28.40;99.90;;;;;;5083451;28;19940;-84
2021/06/20 08:17:44;;;;;;;;;;;28.40;99.90;;;;;;5083063;28;19998;-84
2021/06/20 08:20:11;;;;;;;;;;;28.50;99.90;;;;;;5083843;28;19942;-84
2021/06/20 08:22:38;;;;;;;;;;;28.50;99.90;;;;;;5084546;28;20056;-84
2021/06/20 08:25:05;;;;;;;;;;;28.60;99.90;;;;;;5085753;28;19938;-84
2021/06/20 08:27:32;;;;;;;;;;;28.70;99.90;;;;;;5086411;28;20049;-84
2021/06/20 08:29:58;;;;;;;;;;;28.80;99.90;;;;;;5086246;28;19998;-84
2021/06/20 08:32:29;;;;;;;;;;;28.80;99.90;;;;;;5084161;28;19956;-85
2021/06/20 08:34:55;;;;;;;;;;;28.80;99.90;;;;;;5084524;28;19949;-84
2021/06/20 08:37:22;;;;;;;;;;;28.80;99.90;;;;;;5083896;28;20378;-84
2021/06/20 08:39:48;;;;;;;;;;;28.80;99.90;;;;;;5083338;28;20406;-84
2021/06/20 08:42:15;;;;;;;;;;;28.80;99.90;;;;;;5082378;28;19962;-85
2021/06/20 08:44:41;;;;;;;;;;;28.80;99.90;;;;;;5088631;28;20020;-84
2021/06/20 08:47:08;;;;;;;;;;;28.90;99.90;;;;;;5096307;28;19969;-84
2021/06/20 08:49:36;;;;;;;;;;;28.90;99.90;;;;;;5096977;28;19933;-84
2021/06/20 08:52:03;;;;;;;;;;;28.90;99.90;;;;;;5098919;28;19964;-84
2021/06/20 08:54:30;;;;;;;;;;;29.00;99.90;;;;;;5097682;28;19908;-84
2021/06/20 08:56:56;;;;;;;;;;;29.10;99.90;;;;;;5098481;28;19941;-84
2021/06/20 08:59:24;;;;;;;;;;;29.10;99.90;;;;;;5097612;28;20390;-84
2021/06/20 09:01:51;;;;;;;;;;;29.20;99.90;;;;;;5097290;28;19949;-85
2021/06/20 09:04:26;;;;;;;;;;;29.30;99.90;;;;;;5098467;28;19948;-84
2021/06/20 09:06:54;;;;;;;;;;;29.30;99.90;;;;;;5098923;28;19940;-84
2021/06/20 09:09:26;;;;;;;;;;;29.50;99.90;;;;;;5098735;28;19952;-85
2021/06/20 09:11:53;;;;;;;;;;;29.50;99.90;;;;;;5096645;28;19990;-84
2021/06/20 09:14:21;;;;;;;;;;;29.60;99.90;;;;;;5097404;28;19980;-84
2021/06/20 09:16:48;;;;;;;;;;;29.70;99.90;;;;;;5097630;28;20067;-84
2021/06/20 09:19:15;;;;;;;;;;;29.80;99.90;;;;;;5097306;28;19942;-84
2021/06/20 09:21:51;;;;;;;;;;;29.90;99.90;;;;;;5095092;28;19930;-84
2021/06/20 09:24:19;;;;;;;;;;;30.00;99.90;;;;;;5093966;28;19948;-84
2021/06/20 09:26:46;;;;;;;;;;;30.00;99.90;;;;;;5090355;28;19963;-84
2021/06/20 09:29:12;;;;;;;;;;;30.10;99.90;;;;;;5086733;28;20058;-85
2021/06/20 09:31:47;;;;;;;;;;;30.10;99.90;;;;;;5084797;28;19943;-85
2021/06/20 09:34:13;;;;;;;;;;;30.10;99.90;;;;;;5082934;28;19935;-85
2021/06/20 09:36:40;;;;;;;;;;;30.20;99.90;;;;;;5082860;28;19961;-85
2021/06/20 09:39:17;;;;;;;;;;;30.20;99.90;;;;;;5082782;28;19940;-85
2021/06/20 09:41:55;;;;;;;;;;;30.20;99.90;;;;;;5082034;28;20335;-85
2021/06/20 09:44:32;;;;;;;;;;;30.20;99.90;;;;;;5081843;28;20351;-85
2021/06/20 09:46:58;;;;;;;;;;;30.20;99.90;;;;;;5088293;28;19930;-85
2021/06/20 09:49:26;;;;;;;;;;;30.30;99.90;;;;;;5098121;28;19929;-85
2021/06/20 09:51:53;;;;;;;;;;;30.30;99.90;;;;;;5098160;28;19952;-84
2021/06/20 09:54:26;;;;;;;;;;;30.30;99.90;;;;;;5082676;28;20356;-84
2021/06/20 09:56:54;;;;;;;;;;;30.30;99.90;;;;;;5077379;28;19986;-84
2021/06/20 09:59:26;;;;;;;;;;;30.40;99.90;;;;;;5077064;28;19944;-84
2021/06/20 10:01:52;;;;;;;;;;;30.40;99.90;;;;;;5078765;28;19964;-84
2021/06/20 10:04:19;;;;;;;;;;;30.40;99.90;;;;;;5079287;28;19945;-85
2021/06/20 10:06:46;;;;;;;;;;;30.80;99.90;;;;;;5079644;28;19999;-84
2021/06/20 10:09:12;;;;;;;;;;;30.50;99.90;;;;;;5081186;28;19967;-84
2021/06/20 10:11:41;;;;;;;;;;;30.50;99.90;;;;;;5078679;28;19954;-84
2021/06/20 10:14:09;;;;;;;;;;;30.60;99.90;;;;;;5079964;28;19949;-84
2021/06/20 10:16:37;;;;;;;;;;;30.70;99.90;;;;;;5080695;28;19962;-84
2021/06/20 10:19:06;;;;;;;;;;;30.70;99.90;;;;;;5080475;28;19970;-84
2021/06/20 10:21:35;;;;;;;;;;;30.80;99.90;;;;;;5080974;28;19960;-84
2021/06/20 10:24:06;;;;;;;;;;;30.80;99.90;;;;;;5081148;28;20010;-86
2021/06/20 10:26:34;;;;;;;;;;;30.90;99.90;;;;;;5080503;28;19973;-85
2021/06/20 10:29:02;;;;;;;;;;;30.90;99.90;;;;;;5080421;28;19943;-85
2021/06/20 10:31:34;;;;;;;;;;;30.80;99.90;;;;;;5083672;28;19940;-85
2021/06/20 10:34:15;;;;;;;;;;;30.90;99.90;;;;;;5087727;28;19936;-84
2021/06/20 10:36:44;;;;;;;;;;;30.90;99.90;;;;;;5087319;28;20054;-84
2021/06/20 10:39:12;;;;;;;;;;;31.00;99.90;;;;;;5087242;28;19997;-83
2021/06/20 10:41:38;;;;;;;;;;;31.00;99.90;;;;;;5096018;28;19993;-84
2021/06/20 10:44:05;;;;;;;;;;;31.10;99.90;;;;;;5096217;28;19939;-83
2021/06/20 10:46:32;;;;;;;;;;;31.10;99.90;;;;;;5096049;28;19936;-84
2021/06/20 10:49:01;;;;;;;;;;;31.20;99.90;;;;;;5087166;28;19942;-84
2021/06/20 10:51:31;;;;;;;;;;;31.10;99.90;;;;;;5082383;28;19949;-85
2021/06/20 10:53:58;;;;;;;;;;;31.00;99.90;;;;;;5082306;28;20011;-84
2021/06/20 10:56:25;;;;;;;;;;;30.50;99.90;;;;;;5082839;28;19939;-84
2021/06/20 10:58:53;;;;;;;;;;;30.90;99.90;;;;;;5082901;28;19944;-84
2021/06/20 11:01:20;;;;;;;;;;;31.50;99.90;;;;;;5083800;28;19998;-84
2021/06/20 11:03:48;;;;;;;;;;;31.20;99.90;;;;;;5083845;28;20405;-84
2021/06/20 11:06:16;;;;;;;;;;;31.50;99.90;;;;;;5082622;28;19957;-84
2021/06/20 11:08:44;;;;;;;;;;;31.40;99.90;;;;;;5082056;28;20023;-84
2021/06/20 11:11:13;;;;;;;;;;;31.40;99.90;;;;;;5081234;28;20001;-84
2021/06/20 11:13:40;;;;;;;;;;;31.40;99.90;;;;;;5082549;28;19970;-85
2021/06/20 11:16:08;;;;;;;;;;;31.30;99.90;;;;;;5085221;28;19947;-84
2021/06/20 11:18:35;;;;;;;;;;;31.50;99.90;;;;;;5090172;28;19961;-84
2021/06/20 11:21:02;;;;;;;;;;;31.60;99.90;;;;;;5087404;28;19956;-84
2021/06/20 11:23:31;;;;;;;;;;;31.60;99.90;;;;;;5086985;28;19973;-84
2021/06/20 11:25:58;;;;;;;;;;;31.70;99.90;;;;;;5087267;28;20044;-84
2021/06/20 11:28:25;;;;;;;;;;;31.90;99.90;;;;;;5097685;28;19936;-84
2021/06/20 11:30:52;;;;;;;;;;;31.90;99.90;;;;;;5090871;28;19963;-84
2021/06/20 11:33:25;;;;;;;;;;;31.90;99.90;;;;;;5082424;28;19971;-85
2021/06/20 11:35:52;;;;;;;;;;;32.00;99.90;;;;;;5083779;28;19945;-84
2021/06/20 11:38:27;;;;;;;;;;;32.10;99.90;;;;;;5082623;28;19959;-84
2021/06/20 11:40:55;;;;;;;;;;;32.40;99.90;;;;;;5084249;28;19946;-84
2021/06/20 11:43:21;;;;;;;;;;;32.50;99.90;;;;;;5082145;28;19963;-84
2021/06/20 11:45:48;;;;;;;;;;;32.40;99.90;;;;;;5083543;28;20003;-84
2021/06/20 11:48:14;;;;;;;;;;;32.30;99.90;;;;;;5083977;28;19951;-84
2021/06/20 11:50:42;;;;;;;;;;;32.20;99.90;;;;;;5083060;28;19947;-84
2021/06/20 11:53:10;;;;;;;;;;;32.20;99.90;;;;;;5081232;28;19958;-84
2021/06/20 11:55:38;;;;;;;;;;;32.20;99.90;;;;;;5086814;28;19996;-83
2021/06/20 11:58:06;;;;;;;;;;;32.20;99.90;;;;;;5082812;28;20014;-85
2021/06/20 12:00:33;;;;;;;;;;;32.20;99.90;;;;;;5082232;28;19981;-86
2021/06/20 12:03:01;;;;;;;;;;;32.30;99.90;;;;;;5082099;28;19986;-85
2021/06/20 12:05:27;;;;;;;;;;;32.30;99.90;;;;;;5082286;28;19947;-86
2021/06/20 12:07:58;;;;;;;;;;;32.50;99.90;;;;;;5083954;28;20008;-85
2021/06/20 12:10:24;;;;;;;;;;;32.70;99.90;;;;;;5083453;28;19940;-85
2021/06/20 12:12:57;;;;;;;;;;;32.50;99.90;;;;;;5081979;28;19961;-84
2021/06/20 12:15:25;;;;;;;;;;;32.50;99.90;;;;;;5094046;28;19940;-84
2021/06/20 12:17:52;;;;;;;;;;;32.50;99.90;;;;;;5089272;28;19957;-83
2021/06/20 12:20:28;;;;;;;;;;;32.40;99.90;;;;;;5098406;28;19930;-84
2021/06/20 12:22:54;;;;;;;;;;;32.30;99.90;;;;;;5095526;28;20020;-85
2021/06/20 12:25:21;;;;;;;;;;;32.30;99.90;;;;;;5097366;28;19927;-85
2021/06/20 12:27:47;;;;;;;;;;;32.20;99.90;;;;;;5097463;28;19934;-83
2021/06/20 12:30:15;;;;;;;;;;;32.10;99.90;;;;;;5095780;28;19942;-84
2021/06/20 12:32:44;;;;;;;;;;;32.00;99.90;;;;;;5096724;28;19992;-84
2021/06/20 12:35:18;;;;;;;;;;;31.90;99.90;;;;;;5094560;28;19944;-85
2021/06/20 12:37:44;;;;;;;;;;;32.10;99.90;;;;;;5092045;28;19954;-85
2021/06/20 12:40:12;;;;;;;;;;;32.40;99.90;;;;;;5090419;28;19942;-86
2021/06/20 12:42:49;;;;;;;;;;;32.50;99.90;;;;;;5096705;28;19943;-85
2021/06/20 12:45:20;;;;;;;;;;;32.60;99.50;;;;;;5087715;28;19938;-85
2021/06/20 12:47:47;;;;;;;;;;;32.70;99.90;;;;;;5095001;28;19966;-84
2021/06/20 12:50:14;;;;;;;;;;;32.70;99.90;;;;;;5098201;28;19966;-85
2021/06/20 12:52:43;;;;;;;;;;;32.70;99.90;;;;;;5098212;28;19956;-86
2021/06/20 12:55:19;;;;;;;;;;;32.50;99.90;;;;;;5097835;28;19949;-86
2021/06/20 12:57:49;;;;;;;;;;;32.50;99.90;;;;;;5087303;28;19962;-85
2021/06/20 13:00:18;;;;;;;;;;;32.40;99.90;;;;;;5087415;28;19945;-85
2021/06/20 13:02:50;;;;;;;;;;;32.30;99.90;;;;;;5092679;28;19956;-86
2021/06/20 13:08:20;;;;;;;;;;;33.60;98.90;;;;;;5088013;28;19954;-85
2021/06/20 13:10:46;;;;;;;;;;;33.40;99.90;;;;;;5085530;28;19962;-85
2021/06/20 13:13:14;;;;;;;;;;;32.40;99.90;;;;;;5084750;28;19974;-85
2021/06/20 13:15:41;;;;;;;;;;;32.50;99.90;;;;;;5084287;28;19942;-85
2021/06/20 13:18:07;;;;;;;;;;;32.40;99.90;;;;;;5083979;28;19955;-86
2021/06/20 13:20:34;;;;;;;;;;;32.30;99.90;;;;;;5083131;28;20316;-86
2021/06/20 13:23:03;;;;;;;;;;;32.30;99.90;;;;;;5083973;28;19965;-84
2021/06/20 13:25:31;;;;;;;;;;;32.40;99.90;;;;;;5085621;28;20348;-85
2021/06/20 13:27:58;;;;;;;;;;;32.40;99.90;;;;;;5087252;28;19941;-85
2021/06/20 13:30:25;;;;;;;;;;;32.40;99.90;;;;;;5084170;28;19990;-84
2021/06/20 13:32:52;;;;;;;;;;;32.40;99.90;;;;;;5083248;28;19964;-84
2021/06/20 13:35:19;;;;;;;;;;;32.50;99.90;;;;;;5086234;28;19946;-84
2021/06/20 13:37:46;;;;;;;;;;;32.30;99.90;;;;;;5084991;28;20428;-87
2021/06/20 13:40:14;;;;;;;;;;;32.20;99.60;;;;;;5085106;28;19947;-85
2021/06/20 13:42:43;;;;;;;;;;;32.30;99.90;;;;;;5093184;28;20000;-84
2021/06/20 13:45:10;;;;;;;;;;;32.40;99.90;;;;;;5091191;28;19943;-85
2021/06/20 13:47:37;;;;;;;;;;;32.50;99.90;;;;;;5086441;28;19945;-85
2021/06/20 13:50:04;;;;;;;;;;;32.50;97.80;;;;;;5082456;28;20419;-85
2021/06/20 13:52:30;;;;;;;;;;;32.60;98.40;;;;;;5084702;28;19963;-83
2021/06/20 13:55:00;;;;;;;;;;;32.50;97.60;;;;;;5084113;28;19944;-85
2021/06/20 13:57:28;;;;;;;;;;;32.50;99.90;;;;;;5084975;28;20009;-85
2021/06/20 13:59:56;;;;;;;;;;;32.50;99.90;;;;;;5082938;28;19942;-85
2021/06/20 14:02:22;;;;;;;;;;;32.60;98.70;;;;;;5082637;28;19956;-84
2021/06/20 14:04:49;;;;;;;;;;;32.70;97.70;;;;;;5081974;28;19943;-84
2021/06/20 14:07:15;;;;;;;;;;;32.80;98.70;;;;;;5086080;28;19942;-85
2021/06/20 14:09:42;;;;;;;;;;;32.80;97.60;;;;;;5083058;28;19940;-84
2021/06/20 14:12:10;;;;;;;;;;;32.70;98.40;;;;;;5084972;28;20318;-84
2021/06/20 14:14:36;;;;;;;;;;;32.70;98.40;;;;;;5088653;28;19971;-84
2021/06/20 14:17:04;;;;;;;;;;;32.80;99.70;;;;;;5085104;28;19943;-85
2021/06/20 14:19:31;;;;;;;;;;;32.80;99.90;;;;;;5088184;28;19970;-85